Bradenton, FL (34211)

11:58 AM EDT on August 25, 2016 (GMT -0400)
East Manatee Fire Rescue | | Change Station

Elev 24 ft 27.47 °N, 82.43 °W | Updated 4 minutes ago

Partly Cloudy
Partly Cloudy
88.1 °F
Feels Like 100 °F
N
12.0
Wind Variable Wind from ENE
Gusts 20.0 mph

Today
High -- | Low -- °F
--% Chance of Precip.
Yesterday
High -- | Low -- °F
Precip. -- in
Pressure 30.02 in
Visibility 10.0 miles
Clouds Few 3200 ft
Heat Index 100 °F
Dew Point 77 °F
Humidity 69%
Rainfall 0.00 in
Snow Depth Not available.
7:05 AM 7:57 PM
Last Quarter, 44% visible
METAR KSRQ 251553Z 07009KT 10SM FEW032 33/23 A3002 RMK AO2 SLP165 T03280228 $
Pressure 30.02 in
Visibility 10.0 miles
Clouds Few 3200 ft
Heat Index 100 °F
Dew Point 77 °F
Humidity 69%
Rainfall 0.00 in
Snow Depth Not available.
7:05 AM 7:57 PM
Last Quarter, 44% visible
METAR KSRQ 251553Z 07009KT 10SM FEW032 33/23 A3002 RMK AO2 SLP165 T03280228 $

10-Day Weather Forecast

Almanac

Astronomy

Aug. 25, 2016 Rise Set
Actual Time
Civil Twilight
Nautical Twilight
Astronomical Twilight
Moon
Length of Visible Light
Length of Day
Tomorrow will be .
, % of the Moon is Illuminated

Today's Extremes

State Highs State Lows

Community

WunderPhotos

Upload Photos

1,934,867 photos uploaded!

WunderBlog® & News

Nearby

Air Quality

  Air Quality AQ Index Pollutant
Not available.

Snow Depth

Station Depth Elevation

Earthquake Activity

City Distance Mag. Time & Date
Minimum magnitude displayed is 2.5.

Coastal Water Temperatures

Place Temperature

Stations

Nearby Weather Stations

Station Location Temp. Windchill Dew Point Humidity Wind Precip. Elev Updated Type
                   

Watches & Warnings

There are currently no watches in effect.